sensor_id;sensor_type;location;lat;lon;timestamp;P1;durP1;ratioP1;P2;durP2;ratioP2
3791;SDS011;1911;53.768;11.474;2022-11-15T00:01:39;54.27;;;25.90;;
3791;SDS011;1911;53.768;11.474;2022-11-15T00:04:05;49.97;;;26.27;;
3791;SDS011;1911;53.768;11.474;2022-11-15T00:06:32;54.67;;;26.90;;
3791;SDS011;1911;53.768;11.474;2022-11-15T00:08:57;60.80;;;26.90;;
3791;SDS011;1911;53.768;11.474;2022-11-15T00:11:24;54.10;;;27.40;;
3791;SDS011;1911;53.768;11.474;2022-11-15T00:13:49;55.37;;;26.63;;
3791;SDS011;1911;53.768;11.474;2022-11-15T00:16:15;56.07;;;25.77;;
3791;SDS011;1911;53.768;11.474;2022-11-15T00:18:42;55.20;;;25.23;;
3791;SDS011;1911;53.768;11.474;2022-11-15T00:21:09;61.90;;;28.60;;
3791;SDS011;1911;53.768;11.474;2022-11-15T00:23:36;53.77;;;26.73;;
3791;SDS011;1911;53.768;11.474;2022-11-15T00:26:02;57.90;;;28.03;;
3791;SDS011;1911;53.768;11.474;2022-11-15T00:28:28;53.50;;;26.50;;
3791;SDS011;1911;53.768;11.474;2022-11-15T00:31:00;59.13;;;28.70;;
3791;SDS011;1911;53.768;11.474;2022-11-15T00:33:29;47.67;;;25.47;;
3791;SDS011;1911;53.768;11.474;2022-11-15T00:36:02;51.90;;;25.80;;
3791;SDS011;1911;53.768;11.474;2022-11-15T00:38:30;49.30;;;25.87;;
3791;SDS011;1911;53.768;11.474;2022-11-15T00:40:57;53.80;;;26.20;;
3791;SDS011;1911;53.768;11.474;2022-11-15T00:43:23;53.53;;;27.73;;
3791;SDS011;1911;53.768;11.474;2022-11-15T00:45:48;46.40;;;24.43;;
3791;SDS011;1911;53.768;11.474;2022-11-15T00:48:14;54.30;;;26.20;;
3791;SDS011;1911;53.768;11.474;2022-11-15T00:50:40;46.70;;;27.00;;
3791;SDS011;1911;53.768;11.474;2022-11-15T00:53:05;51.50;;;26.87;;
3791;SDS011;1911;53.768;11.474;2022-11-15T00:55:31;54.43;;;29.73;;
3791;SDS011;1911;53.768;11.474;2022-11-15T00:57:57;45.07;;;25.00;;
3791;SDS011;1911;53.768;11.474;2022-11-15T01:00:22;53.60;;;25.60;;
3791;SDS011;1911;53.768;11.474;2022-11-15T01:02:48;50.03;;;25.90;;
3791;SDS011;1911;53.768;11.474;2022-11-15T01:05:14;47.90;;;24.90;;
3791;SDS011;1911;53.768;11.474;2022-11-15T01:07:39;50.47;;;25.07;;
3791;SDS011;1911;53.768;11.474;2022-11-15T01:10:05;51.47;;;27.57;;
3791;SDS011;1911;53.768;11.474;2022-11-15T01:12:31;49.13;;;25.20;;
3791;SDS011;1911;53.768;11.474;2022-11-15T01:14:57;54.00;;;26.00;;
3791;SDS011;1911;53.768;11.474;2022-11-15T01:17:22;47.33;;;24.50;;
3791;SDS011;1911;53.768;11.474;2022-11-15T01:19:48;54.17;;;25.50;;
3791;SDS011;1911;53.768;11.474;2022-11-15T01:22:14;52.50;;;26.73;;
3791;SDS011;1911;53.768;11.474;2022-11-15T01:24:40;54.57;;;24.60;;
3791;SDS011;1911;53.768;11.474;2022-11-15T01:27:05;50.33;;;24.03;;
3791;SDS011;1911;53.768;11.474;2022-11-15T01:29:31;54.37;;;23.97;;
3791;SDS011;1911;53.768;11.474;2022-11-15T01:31:56;52.30;;;26.80;;
3791;SDS011;1911;53.768;11.474;2022-11-15T01:34:22;48.77;;;24.13;;
3791;SDS011;1911;53.768;11.474;2022-11-15T01:36:48;55.63;;;26.53;;
3791;SDS011;1911;53.768;11.474;2022-11-15T01:39:13;46.60;;;24.30;;
3791;SDS011;1911;53.768;11.474;2022-11-15T01:41:40;50.47;;;26.87;;
3791;SDS011;1911;53.768;11.474;2022-11-15T01:46:56;49.70;;;25.87;;
3791;SDS011;1911;53.768;11.474;2022-11-15T01:49:24;50.53;;;24.97;;
3791;SDS011;1911;53.768;11.474;2022-11-15T01:51:51;46.47;;;23.07;;
3791;SDS011;1911;53.768;11.474;2022-11-15T01:54:18;49.67;;;24.47;;
3791;SDS011;1911;53.768;11.474;2022-11-15T01:56:47;47.40;;;26.53;;
3791;SDS011;1911;53.768;11.474;2022-11-15T01:59:19;50.60;;;24.70;;
3791;SDS011;1911;53.768;11.474;2022-11-15T02:01:46;45.47;;;24.00;;
3791;SDS011;1911;53.768;11.474;2022-11-15T02:04:13;48.63;;;25.10;;
3791;SDS011;1911;53.768;11.474;2022-11-15T02:06:43;40.13;;;21.63;;
3791;SDS011;1911;53.768;11.474;2022-11-15T02:09:11;45.37;;;22.43;;
3791;SDS011;1911;53.768;11.474;2022-11-15T02:11:37;50.13;;;23.63;;
3791;SDS011;1911;53.768;11.474;2022-11-15T02:14:03;47.53;;;23.17;;
3791;SDS011;1911;53.768;11.474;2022-11-15T02:19:47;49.27;;;24.83;;
3791;SDS011;1911;53.768;11.474;2022-11-15T02:24:56;40.07;;;22.70;;
3791;SDS011;1911;53.768;11.474;2022-11-15T02:32:57;45.73;;;23.50;;
3791;SDS011;1911;53.768;11.474;2022-11-15T02:35:36;42.93;;;23.00;;
3791;SDS011;1911;53.768;11.474;2022-11-15T02:41:07;48.00;;;21.90;;
3791;SDS011;1911;53.768;11.474;2022-11-15T02:49:22;46.30;;;21.57;;
3791;SDS011;1911;53.768;11.474;2022-11-15T02:51:50;38.93;;;20.53;;
3791;SDS011;1911;53.768;11.474;2022-11-15T02:54:21;45.33;;;22.17;;
3791;SDS011;1911;53.768;11.474;2022-11-15T02:56:49;40.77;;;22.10;;
3791;SDS011;1911;53.768;11.474;2022-11-15T03:04:54;46.83;;;22.43;;
3791;SDS011;1911;53.768;11.474;2022-11-15T03:10:25;47.77;;;25.90;;
3791;SDS011;1911;53.768;11.474;2022-11-15T03:13:06;44.00;;;22.50;;
3791;SDS011;1911;53.768;11.474;2022-11-15T03:15:43;43.80;;;22.80;;
3791;SDS011;1911;53.768;11.474;2022-11-15T03:18:21;45.30;;;22.83;;
3791;SDS011;1911;53.768;11.474;2022-11-15T03:20:57;48.73;;;22.13;;
3791;SDS011;1911;53.768;11.474;2022-11-15T03:23:29;44.47;;;23.83;;
3791;SDS011;1911;53.768;11.474;2022-11-15T03:25:56;44.67;;;23.47;;
3791;SDS011;1911;53.768;11.474;2022-11-15T03:28:38;52.23;;;24.77;;
3791;SDS011;1911;53.768;11.474;2022-11-15T03:31:10;47.43;;;25.00;;
3791;SDS011;1911;53.768;11.474;2022-11-15T03:33:57;46.80;;;25.30;;
3791;SDS011;1911;53.768;11.474;2022-11-15T03:36:24;51.27;;;23.50;;
3791;SDS011;1911;53.768;11.474;2022-11-15T03:38:53;46.33;;;23.00;;
3791;SDS011;1911;53.768;11.474;2022-11-15T03:41:25;46.30;;;22.73;;
3791;SDS011;1911;53.768;11.474;2022-11-15T03:49:38;48.43;;;24.00;;
3791;SDS011;1911;53.768;11.474;2022-11-15T03:52:09;41.63;;;21.47;;
3791;SDS011;1911;53.768;11.474;2022-11-15T03:54:35;50.10;;;24.17;;
3791;SDS011;1911;53.768;11.474;2022-11-15T03:57:01;42.80;;;21.97;;
3791;SDS011;1911;53.768;11.474;2022-11-15T03:59:27;46.70;;;24.03;;
3791;SDS011;1911;53.768;11.474;2022-11-15T04:01:52;37.33;;;20.57;;
3791;SDS011;1911;53.768;11.474;2022-11-15T04:04:18;41.03;;;20.93;;
3791;SDS011;1911;53.768;11.474;2022-11-15T04:06:43;42.43;;;23.50;;
3791;SDS011;1911;53.768;11.474;2022-11-15T04:09:09;41.83;;;21.00;;
3791;SDS011;1911;53.768;11.474;2022-11-15T04:11:35;43.47;;;22.60;;
3791;SDS011;1911;53.768;11.474;2022-11-15T04:14:00;43.67;;;21.33;;
3791;SDS011;1911;53.768;11.474;2022-11-15T04:16:26;38.97;;;19.87;;
3791;SDS011;1911;53.768;11.474;2022-11-15T04:18:51;40.70;;;22.60;;
3791;SDS011;1911;53.768;11.474;2022-11-15T04:21:37;40.27;;;21.40;;
3791;SDS011;1911;53.768;11.474;2022-11-15T04:24:21;48.90;;;22.60;;
3791;SDS011;1911;53.768;11.474;2022-11-15T04:26:47;51.10;;;24.10;;
3791;SDS011;1911;53.768;11.474;2022-11-15T04:29:12;41.83;;;21.57;;
3791;SDS011;1911;53.768;11.474;2022-11-15T04:31:56;45.23;;;21.87;;
3791;SDS011;1911;53.768;11.474;2022-11-15T04:34:22;46.97;;;23.03;;
3791;SDS011;1911;53.768;11.474;2022-11-15T04:36:47;48.50;;;21.20;;
3791;SDS011;1911;53.768;11.474;2022-11-15T04:39:32;47.83;;;24.80;;
3791;SDS011;1911;53.768;11.474;2022-11-15T04:41:57;44.57;;;21.07;;
3791;SDS011;1911;53.768;11.474;2022-11-15T04:44:23;51.27;;;22.30;;
3791;SDS011;1911;53.768;11.474;2022-11-15T04:46:48;41.73;;;22.20;;
3791;SDS011;1911;53.768;11.474;2022-11-15T04:49:14;43.00;;;21.80;;
3791;SDS011;1911;53.768;11.474;2022-11-15T04:51:39;46.10;;;23.00;;
3791;SDS011;1911;53.768;11.474;2022-11-15T04:54:05;43.87;;;21.50;;
3791;SDS011;1911;53.768;11.474;2022-11-15T04:56:31;39.37;;;21.53;;
3791;SDS011;1911;53.768;11.474;2022-11-15T04:58:56;39.33;;;21.27;;
3791;SDS011;1911;53.768;11.474;2022-11-15T05:01:22;42.03;;;22.10;;
3791;SDS011;1911;53.768;11.474;2022-11-15T05:03:48;39.23;;;20.00;;
3791;SDS011;1911;53.768;11.474;2022-11-15T05:06:32;37.97;;;21.03;;
3791;SDS011;1911;53.768;11.474;2022-11-15T05:08:57;37.73;;;20.17;;
3791;SDS011;1911;53.768;11.474;2022-11-15T05:11:23;37.27;;;20.00;;
3791;SDS011;1911;53.768;11.474;2022-11-15T05:13:49;34.37;;;19.00;;
3791;SDS011;1911;53.768;11.474;2022-11-15T05:16:15;37.50;;;19.93;;
3791;SDS011;1911;53.768;11.474;2022-11-15T05:18:41;34.13;;;19.60;;
3791;SDS011;1911;53.768;11.474;2022-11-15T05:21:07;38.90;;;21.03;;
3791;SDS011;1911;53.768;11.474;2022-11-15T05:23:37;39.33;;;20.53;;
3791;SDS011;1911;53.768;11.474;2022-11-15T05:26:04;37.90;;;20.30;;
3791;SDS011;1911;53.768;11.474;2022-11-15T05:28:30;37.83;;;19.90;;
3791;SDS011;1911;53.768;11.474;2022-11-15T05:31:03;44.87;;;20.80;;
3791;SDS011;1911;53.768;11.474;2022-11-15T05:33:30;38.70;;;19.60;;
3791;SDS011;1911;53.768;11.474;2022-11-15T05:36:42;34.63;;;19.60;;
3791;SDS011;1911;53.768;11.474;2022-11-15T05:39:05;39.40;;;21.70;;
3791;SDS011;1911;53.768;11.474;2022-11-15T05:41:34;43.73;;;19.70;;
3791;SDS011;1911;53.768;11.474;2022-11-15T05:44:05;39.83;;;20.00;;
3791;SDS011;1911;53.768;11.474;2022-11-15T05:46:34;36.60;;;20.23;;
3791;SDS011;1911;53.768;11.474;2022-11-15T05:49:01;43.00;;;21.90;;
3791;SDS011;1911;53.768;11.474;2022-11-15T05:51:29;38.90;;;20.57;;
3791;SDS011;1911;53.768;11.474;2022-11-15T05:53:56;39.83;;;19.87;;
3791;SDS011;1911;53.768;11.474;2022-11-15T05:56:23;37.27;;;20.30;;
3791;SDS011;1911;53.768;11.474;2022-11-15T05:58:49;36.70;;;19.80;;
3791;SDS011;1911;53.768;11.474;2022-11-15T06:01:16;39.77;;;19.20;;
3791;SDS011;1911;53.768;11.474;2022-11-15T06:03:41;35.20;;;18.53;;
3791;SDS011;1911;53.768;11.474;2022-11-15T06:06:07;33.90;;;21.47;;
3791;SDS011;1911;53.768;11.474;2022-11-15T06:08:33;30.60;;;17.93;;
3791;SDS011;1911;53.768;11.474;2022-11-15T06:11:02;33.20;;;17.40;;
3791;SDS011;1911;53.768;11.474;2022-11-15T06:13:29;35.60;;;18.17;;
3791;SDS011;1911;53.768;11.474;2022-11-15T06:15:55;31.53;;;17.83;;
3791;SDS011;1911;53.768;11.474;2022-11-15T06:18:21;34.83;;;19.43;;
3791;SDS011;1911;53.768;11.474;2022-11-15T06:20:47;31.27;;;17.97;;
3791;SDS011;1911;53.768;11.474;2022-11-15T06:23:12;31.70;;;17.40;;
3791;SDS011;1911;53.768;11.474;2022-11-15T06:25:38;33.10;;;19.57;;
3791;SDS011;1911;53.768;11.474;2022-11-15T06:28:04;30.90;;;17.70;;
3791;SDS011;1911;53.768;11.474;2022-11-15T06:30:29;29.47;;;18.13;;
3791;SDS011;1911;53.768;11.474;2022-11-15T06:33:02;29.40;;;17.50;;
3791;SDS011;1911;53.768;11.474;2022-11-15T06:35:29;30.43;;;17.80;;
3791;SDS011;1911;53.768;11.474;2022-11-15T06:37:56;34.67;;;19.70;;
3791;SDS011;1911;53.768;11.474;2022-11-15T06:40:26;29.23;;;16.23;;
3791;SDS011;1911;53.768;11.474;2022-11-15T06:42:56;31.40;;;17.80;;
3791;SDS011;1911;53.768;11.474;2022-11-15T06:45:25;35.73;;;17.80;;
3791;SDS011;1911;53.768;11.474;2022-11-15T06:47:51;30.90;;;17.10;;
3791;SDS011;1911;53.768;11.474;2022-11-15T06:50:17;34.77;;;18.87;;
3791;SDS011;1911;53.768;11.474;2022-11-15T06:52:42;36.30;;;19.10;;
3791;SDS011;1911;53.768;11.474;2022-11-15T06:55:08;31.93;;;16.80;;
3791;SDS011;1911;53.768;11.474;2022-11-15T06:57:34;30.07;;;17.90;;
3791;SDS011;1911;53.768;11.474;2022-11-15T07:00:00;28.77;;;17.10;;
3791;SDS011;1911;53.768;11.474;2022-11-15T07:02:27;29.57;;;16.53;;
3791;SDS011;1911;53.768;11.474;2022-11-15T07:04:52;28.83;;;16.50;;
3791;SDS011;1911;53.768;11.474;2022-11-15T07:07:18;30.90;;;16.50;;
3791;SDS011;1911;53.768;11.474;2022-11-15T07:09:44;32.57;;;16.93;;
3791;SDS011;1911;53.768;11.474;2022-11-15T07:12:09;29.33;;;18.40;;
3791;SDS011;1911;53.768;11.474;2022-11-15T07:14:35;34.47;;;19.20;;
3791;SDS011;1911;53.768;11.474;2022-11-15T07:17:03;30.80;;;16.70;;
3791;SDS011;1911;53.768;11.474;2022-11-15T07:19:29;32.23;;;17.73;;
3791;SDS011;1911;53.768;11.474;2022-11-15T07:21:55;27.10;;;16.40;;
3791;SDS011;1911;53.768;11.474;2022-11-15T07:24:21;31.90;;;17.50;;
3791;SDS011;1911;53.768;11.474;2022-11-15T07:26:46;35.33;;;19.20;;
3791;SDS011;1911;53.768;11.474;2022-11-15T07:29:12;30.97;;;18.30;;
3791;SDS011;1911;53.768;11.474;2022-11-15T07:31:37;31.40;;;17.60;;
3791;SDS011;1911;53.768;11.474;2022-11-15T07:34:03;25.83;;;16.40;;
3791;SDS011;1911;53.768;11.474;2022-11-15T07:36:29;28.83;;;16.83;;
3791;SDS011;1911;53.768;11.474;2022-11-15T07:38:55;30.60;;;16.83;;
3791;SDS011;1911;53.768;11.474;2022-11-15T07:41:20;30.83;;;18.00;;
3791;SDS011;1911;53.768;11.474;2022-11-15T07:43:46;31.23;;;17.00;;
3791;SDS011;1911;53.768;11.474;2022-11-15T07:46:12;29.93;;;16.37;;
3791;SDS011;1911;53.768;11.474;2022-11-15T07:48:38;30.60;;;17.20;;
3791;SDS011;1911;53.768;11.474;2022-11-15T07:51:05;27.83;;;18.00;;
3791;SDS011;1911;53.768;11.474;2022-11-15T07:53:31;31.67;;;17.70;;
3791;SDS011;1911;53.768;11.474;2022-11-15T07:55:57;32.23;;;18.40;;
3791;SDS011;1911;53.768;11.474;2022-11-15T07:58:22;28.50;;;16.40;;
3791;SDS011;1911;53.768;11.474;2022-11-15T08:00:48;26.97;;;17.13;;
3791;SDS011;1911;53.768;11.474;2022-11-15T08:03:15;27.10;;;16.10;;
3791;SDS011;1911;53.768;11.474;2022-11-15T08:05:42;28.40;;;16.60;;
3791;SDS011;1911;53.768;11.474;2022-11-15T08:08:09;29.30;;;16.97;;
3791;SDS011;1911;53.768;11.474;2022-11-15T08:10:36;28.50;;;17.20;;
3791;SDS011;1911;53.768;11.474;2022-11-15T08:13:06;28.13;;;16.40;;
3791;SDS011;1911;53.768;11.474;2022-11-15T08:15:33;27.77;;;16.80;;
3791;SDS011;1911;53.768;11.474;2022-11-15T08:18:01;27.80;;;17.50;;
3791;SDS011;1911;53.768;11.474;2022-11-15T08:20:29;30.63;;;18.70;;
3791;SDS011;1911;53.768;11.474;2022-11-15T08:22:55;31.63;;;17.20;;
3791;SDS011;1911;53.768;11.474;2022-11-15T08:25:22;29.10;;;16.13;;
3791;SDS011;1911;53.768;11.474;2022-11-15T08:27:51;27.90;;;17.27;;
3791;SDS011;1911;53.768;11.474;2022-11-15T08:30:17;30.80;;;16.60;;
3791;SDS011;1911;53.768;11.474;2022-11-15T08:32:43;29.33;;;15.43;;
3791;SDS011;1911;53.768;11.474;2022-11-15T08:35:08;27.67;;;16.60;;
3791;SDS011;1911;53.768;11.474;2022-11-15T08:37:34;30.80;;;17.20;;
3791;SDS011;1911;53.768;11.474;2022-11-15T08:40:00;29.40;;;16.50;;
3791;SDS011;1911;53.768;11.474;2022-11-15T08:42:26;29.67;;;17.03;;
3791;SDS011;1911;53.768;11.474;2022-11-15T08:44:52;27.23;;;15.40;;
3791;SDS011;1911;53.768;11.474;2022-11-15T08:47:17;27.83;;;16.97;;
3791;SDS011;1911;53.768;11.474;2022-11-15T08:49:43;30.60;;;16.80;;
3791;SDS011;1911;53.768;11.474;2022-11-15T08:52:08;26.77;;;15.83;;
3791;SDS011;1911;53.768;11.474;2022-11-15T08:54:34;29.03;;;15.83;;
3791;SDS011;1911;53.768;11.474;2022-11-15T08:57:00;27.37;;;14.50;;
3791;SDS011;1911;53.768;11.474;2022-11-15T08:59:25;26.80;;;15.23;;
3791;SDS011;1911;53.768;11.474;2022-11-15T09:01:51;31.60;;;15.73;;
3791;SDS011;1911;53.768;11.474;2022-11-15T09:04:16;21.33;;;14.40;;
3791;SDS011;1911;53.768;11.474;2022-11-15T09:06:42;28.13;;;16.17;;
3791;SDS011;1911;53.768;11.474;2022-11-15T09:09:08;25.60;;;14.07;;
3791;SDS011;1911;53.768;11.474;2022-11-15T09:11:33;26.70;;;15.10;;
3791;SDS011;1911;53.768;11.474;2022-11-15T09:13:59;25.77;;;15.10;;
3791;SDS011;1911;53.768;11.474;2022-11-15T09:16:24;25.30;;;16.13;;
3791;SDS011;1911;53.768;11.474;2022-11-15T09:18:50;25.53;;;14.27;;
3791;SDS011;1911;53.768;11.474;2022-11-15T09:21:16;25.90;;;14.70;;
3791;SDS011;1911;53.768;11.474;2022-11-15T09:23:41;28.23;;;14.30;;
3791;SDS011;1911;53.768;11.474;2022-11-15T09:26:08;26.70;;;15.97;;
3791;SDS011;1911;53.768;11.474;2022-11-15T09:28:34;25.97;;;15.23;;
3791;SDS011;1911;53.768;11.474;2022-11-15T09:31:02;25.97;;;15.00;;
3791;SDS011;1911;53.768;11.474;2022-11-15T09:33:29;26.13;;;15.07;;
3791;SDS011;1911;53.768;11.474;2022-11-15T09:36:05;25.43;;;15.60;;
3791;SDS011;1911;53.768;11.474;2022-11-15T09:38:33;25.97;;;15.47;;
3791;SDS011;1911;53.768;11.474;2022-11-15T09:41:08;29.13;;;14.37;;
3791;SDS011;1911;53.768;11.474;2022-11-15T09:43:50;24.40;;;14.30;;
3791;SDS011;1911;53.768;11.474;2022-11-15T09:49:24;24.53;;;14.47;;
3791;SDS011;1911;53.768;11.474;2022-11-15T09:51:51;23.00;;;13.40;;
3791;SDS011;1911;53.768;11.474;2022-11-15T09:54:29;27.30;;;15.30;;
3791;SDS011;1911;53.768;11.474;2022-11-15T09:56:56;22.00;;;13.93;;
3791;SDS011;1911;53.768;11.474;2022-11-15T10:05:24;20.90;;;13.37;;
3791;SDS011;1911;53.768;11.474;2022-11-15T10:07:57;20.27;;;12.83;;
3791;SDS011;1911;53.768;11.474;2022-11-15T10:10:34;25.30;;;15.07;;
3791;SDS011;1911;53.768;11.474;2022-11-15T10:13:42;21.50;;;14.60;;
3791;SDS011;1911;53.768;11.474;2022-11-15T10:21:37;27.63;;;14.13;;
3791;SDS011;1911;53.768;11.474;2022-11-15T10:24:11;20.40;;;11.97;;
3791;SDS011;1911;53.768;11.474;2022-11-15T10:26:37;21.43;;;12.53;;
3791;SDS011;1911;53.768;11.474;2022-11-15T10:29:04;21.70;;;13.57;;
3791;SDS011;1911;53.768;11.474;2022-11-15T10:31:29;24.90;;;13.33;;
3791;SDS011;1911;53.768;11.474;2022-11-15T10:33:59;20.20;;;12.27;;
3791;SDS011;1911;53.768;11.474;2022-11-15T10:36:37;18.50;;;12.23;;
3791;SDS011;1911;53.768;11.474;2022-11-15T10:39:02;18.67;;;11.80;;
3791;SDS011;1911;53.768;11.474;2022-11-15T10:41:30;20.03;;;13.60;;
3791;SDS011;1911;53.768;11.474;2022-11-15T10:49:31;23.90;;;12.40;;
3791;SDS011;1911;53.768;11.474;2022-11-15T10:56:59;18.93;;;12.10;;
3791;SDS011;1911;53.768;11.474;2022-11-15T10:59:38;17.93;;;11.30;;
3791;SDS011;1911;53.768;11.474;2022-11-15T11:02:27;16.77;;;12.47;;
3791;SDS011;1911;53.768;11.474;2022-11-15T11:05:00;16.47;;;10.97;;
3791;SDS011;1911;53.768;11.474;2022-11-15T11:07:30;15.40;;;11.40;;
3791;SDS011;1911;53.768;11.474;2022-11-15T11:12:42;17.93;;;11.37;;
3791;SDS011;1911;53.768;11.474;2022-11-15T11:15:12;19.27;;;12.50;;
3791;SDS011;1911;53.768;11.474;2022-11-15T11:20:38;18.47;;;12.60;;
3791;SDS011;1911;53.768;11.474;2022-11-15T11:31:29;18.43;;;10.37;;
3791;SDS011;1911;53.768;11.474;2022-11-15T11:34:15;19.13;;;13.67;;
3791;SDS011;1911;53.768;11.474;2022-11-15T11:36:55;14.90;;;11.10;;
3791;SDS011;1911;53.768;11.474;2022-11-15T11:45:29;16.37;;;9.23;;
3791;SDS011;1911;53.768;11.474;2022-11-15T11:50:38;19.10;;;10.73;;
3791;SDS011;1911;53.768;11.474;2022-11-15T11:53:17;15.30;;;10.80;;
3791;SDS011;1911;53.768;11.474;2022-11-15T11:55:57;16.80;;;11.03;;
3791;SDS011;1911;53.768;11.474;2022-11-15T11:58:30;17.10;;;10.83;;
3791;SDS011;1911;53.768;11.474;2022-11-15T12:01:12;13.17;;;9.47;;
3791;SDS011;1911;53.768;11.474;2022-11-15T12:06:24;17.40;;;10.33;;
3791;SDS011;1911;53.768;11.474;2022-11-15T12:16:57;18.00;;;11.87;;
3791;SDS011;1911;53.768;11.474;2022-11-15T12:19:24;15.83;;;9.73;;
3791;SDS011;1911;53.768;11.474;2022-11-15T12:21:54;13.73;;;9.60;;
3791;SDS011;1911;53.768;11.474;2022-11-15T12:24:29;13.03;;;9.13;;
3791;SDS011;1911;53.768;11.474;2022-11-15T12:27:13;15.40;;;10.10;;
3791;SDS011;1911;53.768;11.474;2022-11-15T12:29:56;13.97;;;9.57;;
3791;SDS011;1911;53.768;11.474;2022-11-15T12:35:00;14.37;;;10.90;;
3791;SDS011;1911;53.768;11.474;2022-11-15T12:40:17;14.27;;;10.40;;
3791;SDS011;1911;53.768;11.474;2022-11-15T12:45:39;19.83;;;10.50;;
3791;SDS011;1911;53.768;11.474;2022-11-15T13:01:08;22.90;;;12.57;;
3791;SDS011;1911;53.768;11.474;2022-11-15T13:03:35;17.73;;;11.33;;
3791;SDS011;1911;53.768;11.474;2022-11-15T13:06:36;14.60;;;10.40;;
3791;SDS011;1911;53.768;11.474;2022-11-15T13:12:04;16.67;;;11.30;;
3791;SDS011;1911;53.768;11.474;2022-11-15T13:14:54;18.40;;;11.47;;
3791;SDS011;1911;53.768;11.474;2022-11-15T13:17:24;18.47;;;12.00;;
3791;SDS011;1911;53.768;11.474;2022-11-15T13:22:24;20.53;;;12.23;;
3791;SDS011;1911;53.768;11.474;2022-11-15T13:25:16;15.80;;;11.80;;
3791;SDS011;1911;53.768;11.474;2022-11-15T13:27:52;19.80;;;11.97;;
3791;SDS011;1911;53.768;11.474;2022-11-15T13:30:23;17.67;;;11.27;;
3791;SDS011;1911;53.768;11.474;2022-11-15T13:32:51;17.47;;;11.53;;
3791;SDS011;1911;53.768;11.474;2022-11-15T13:35:21;21.53;;;11.80;;
3791;SDS011;1911;53.768;11.474;2022-11-15T13:37:49;19.23;;;12.50;;
3791;SDS011;1911;53.768;11.474;2022-11-15T13:40:23;21.03;;;13.30;;
3791;SDS011;1911;53.768;11.474;2022-11-15T13:42:52;14.93;;;10.07;;
3791;SDS011;1911;53.768;11.474;2022-11-15T13:45:18;17.40;;;12.07;;
3791;SDS011;1911;53.768;11.474;2022-11-15T13:47:49;23.50;;;12.07;;
3791;SDS011;1911;53.768;11.474;2022-11-15T13:50:21;17.20;;;10.97;;
3791;SDS011;1911;53.768;11.474;2022-11-15T13:52:52;20.10;;;11.40;;
3791;SDS011;1911;53.768;11.474;2022-11-15T13:55:19;19.07;;;11.57;;
3791;SDS011;1911;53.768;11.474;2022-11-15T13:57:51;19.90;;;11.53;;
3791;SDS011;1911;53.768;11.474;2022-11-15T14:00:29;17.67;;;11.67;;
3791;SDS011;1911;53.768;11.474;2022-11-15T14:03:18;25.73;;;13.20;;
3791;SDS011;1911;53.768;11.474;2022-11-15T14:05:52;16.40;;;11.30;;
3791;SDS011;1911;53.768;11.474;2022-11-15T14:08:37;19.37;;;11.10;;
3791;SDS011;1911;53.768;11.474;2022-11-15T14:11:05;20.03;;;12.37;;
3791;SDS011;1911;53.768;11.474;2022-11-15T14:13:32;19.77;;;12.03;;
3791;SDS011;1911;53.768;11.474;2022-11-15T14:18:44;19.83;;;12.13;;
3791;SDS011;1911;53.768;11.474;2022-11-15T14:21:15;20.67;;;12.73;;
3791;SDS011;1911;53.768;11.474;2022-11-15T14:23:41;18.70;;;12.23;;
3791;SDS011;1911;53.768;11.474;2022-11-15T14:28:38;24.07;;;14.47;;
3791;SDS011;1911;53.768;11.474;2022-11-15T14:31:07;25.83;;;14.00;;
3791;SDS011;1911;53.768;11.474;2022-11-15T14:33:38;27.20;;;14.20;;
3791;SDS011;1911;53.768;11.474;2022-11-15T14:38:32;27.60;;;15.70;;
3791;SDS011;1911;53.768;11.474;2022-11-15T14:40:57;21.63;;;14.13;;
3791;SDS011;1911;53.768;11.474;2022-11-15T14:43:23;24.17;;;15.73;;
3791;SDS011;1911;53.768;11.474;2022-11-15T14:45:54;23.67;;;15.40;;
3791;SDS011;1911;53.768;11.474;2022-11-15T14:48:20;23.80;;;15.80;;
3791;SDS011;1911;53.768;11.474;2022-11-15T14:50:49;26.80;;;14.13;;
3791;SDS011;1911;53.768;11.474;2022-11-15T14:53:15;29.20;;;14.50;;
3791;SDS011;1911;53.768;11.474;2022-11-15T14:55:42;21.20;;;12.60;;
3791;SDS011;1911;53.768;11.474;2022-11-15T14:58:08;30.97;;;14.27;;
3791;SDS011;1911;53.768;11.474;2022-11-15T15:00:35;25.90;;;15.10;;
3791;SDS011;1911;53.768;11.474;2022-11-15T15:03:03;22.10;;;15.07;;
3791;SDS011;1911;53.768;11.474;2022-11-15T15:05:41;24.73;;;15.00;;
3791;SDS011;1911;53.768;11.474;2022-11-15T15:08:07;24.20;;;15.20;;
3791;SDS011;1911;53.768;11.474;2022-11-15T15:10:35;29.20;;;16.00;;
3791;SDS011;1911;53.768;11.474;2022-11-15T15:13:02;27.83;;;15.43;;
3791;SDS011;1911;53.768;11.474;2022-11-15T15:15:36;30.33;;;16.50;;
3791;SDS011;1911;53.768;11.474;2022-11-15T15:18:03;28.87;;;15.97;;
3791;SDS011;1911;53.768;11.474;2022-11-15T15:20:29;26.60;;;15.90;;
3791;SDS011;1911;53.768;11.474;2022-11-15T15:22:59;33.67;;;17.80;;
3791;SDS011;1911;53.768;11.474;2022-11-15T15:25:28;34.80;;;17.53;;
3791;SDS011;1911;53.768;11.474;2022-11-15T15:27:57;31.83;;;17.60;;
3791;SDS011;1911;53.768;11.474;2022-11-15T15:30:24;30.13;;;18.53;;
3791;SDS011;1911;53.768;11.474;2022-11-15T15:32:50;28.13;;;16.70;;
3791;SDS011;1911;53.768;11.474;2022-11-15T15:35:16;26.47;;;16.80;;
3791;SDS011;1911;53.768;11.474;2022-11-15T15:37:43;28.37;;;15.67;;
3791;SDS011;1911;53.768;11.474;2022-11-15T15:40:17;32.63;;;18.50;;
3791;SDS011;1911;53.768;11.474;2022-11-15T15:42:45;31.93;;;16.97;;
3791;SDS011;1911;53.768;11.474;2022-11-15T15:45:14;32.57;;;18.67;;
3791;SDS011;1911;53.768;11.474;2022-11-15T15:47:40;30.30;;;18.27;;
3791;SDS011;1911;53.768;11.474;2022-11-15T15:50:26;33.00;;;18.30;;
3791;SDS011;1911;53.768;11.474;2022-11-15T15:52:53;29.10;;;18.57;;
3791;SDS011;1911;53.768;11.474;2022-11-15T15:55:21;31.67;;;18.60;;
3791;SDS011;1911;53.768;11.474;2022-11-15T15:57:47;28.30;;;16.23;;
3791;SDS011;1911;53.768;11.474;2022-11-15T16:00:13;27.50;;;17.10;;
3791;SDS011;1911;53.768;11.474;2022-11-15T16:02:40;33.63;;;18.07;;
3791;SDS011;1911;53.768;11.474;2022-11-15T16:05:07;31.80;;;18.00;;
3791;SDS011;1911;53.768;11.474;2022-11-15T16:07:33;33.37;;;18.70;;
3791;SDS011;1911;53.768;11.474;2022-11-15T16:09:58;28.93;;;17.50;;
3791;SDS011;1911;53.768;11.474;2022-11-15T16:14:57;28.60;;;17.37;;
3791;SDS011;1911;53.768;11.474;2022-11-15T16:17:24;31.73;;;18.20;;
3791;SDS011;1911;53.768;11.474;2022-11-15T16:19:55;33.40;;;17.73;;
3791;SDS011;1911;53.768;11.474;2022-11-15T16:22:21;32.87;;;18.40;;
3791;SDS011;1911;53.768;11.474;2022-11-15T16:24:46;35.70;;;19.70;;
3791;SDS011;1911;53.768;11.474;2022-11-15T16:27:17;35.17;;;20.33;;
3791;SDS011;1911;53.768;11.474;2022-11-15T16:29:45;30.27;;;17.67;;
3791;SDS011;1911;53.768;11.474;2022-11-15T16:32:12;36.63;;;20.30;;
3791;SDS011;1911;53.768;11.474;2022-11-15T16:34:38;34.10;;;18.83;;
3791;SDS011;1911;53.768;11.474;2022-11-15T16:37:04;36.13;;;20.43;;
3791;SDS011;1911;53.768;11.474;2022-11-15T16:39:31;39.70;;;19.50;;
3791;SDS011;1911;53.768;11.474;2022-11-15T16:41:57;45.20;;;21.37;;
3791;SDS011;1911;53.768;11.474;2022-11-15T16:44:23;36.70;;;19.77;;
3791;SDS011;1911;53.768;11.474;2022-11-15T16:46:49;37.03;;;20.80;;
3791;SDS011;1911;53.768;11.474;2022-11-15T16:49:20;36.30;;;20.13;;
3791;SDS011;1911;53.768;11.474;2022-11-15T16:51:49;33.60;;;19.40;;
3791;SDS011;1911;53.768;11.474;2022-11-15T16:54:15;38.57;;;20.30;;
3791;SDS011;1911;53.768;11.474;2022-11-15T16:56:41;34.17;;;18.50;;
3791;SDS011;1911;53.768;11.474;2022-11-15T16:59:08;29.17;;;18.20;;